LUA weather

Lukla Airport
Lukla, Sagarmatha, Nepal

Public forecast

Using degrees Celsius for public forecast. Weather courtesy of forecast.io.

METAR (pilot weather report)

Closest report is Tribhuvan International Airport, 72.9 nm (135.0 km) W. Retrieved 2019/03/19 20:20 UTC (25 minutes ago):

VNKT 192020Z VRB02KT 5000 BR FEW015 10/09 Q1016 NOSIG

TAF (pilot weather forecast)

Closest forecast is Tribhuvan International Airport, 72.9 nm (135.0 km) W. Retrieved 2019/03/19 18:42 UTC (2 hours ago):

TAF TAF VNKT 191700Z 1918/2018 10003KT 6000 FEW010 SCT030 BECMG 2000/2002 00000KT 3000 BR FEW010 SCT025 PROB40 2001/2003 1500 BR BECMG 2004/2005 13004KT 5000 HZ FEW015 BECMG 2007/2009 25010KT 8000 FEW020 SCT100 PROB40 2008/2012 VRB12KT 4000 -TSRA FEW025CB BKN100 BECMG 2013/2014 11003KT 6000 FEW015 SCT030